createdAt,value
2022-11-29T00:00:15.456Z,101452.4
2022-11-29T00:05:14.045Z,101448.51999999999
2022-11-29T00:10:14.050Z,101453.09
2022-11-29T00:15:15.163Z,101448.24
2022-11-29T00:20:13.987Z,101452.42
2022-11-29T00:25:14.427Z,101452.28
2022-11-29T00:30:14.556Z,101458.12
2022-11-29T00:35:14.298Z,101458.91
2022-11-29T00:40:13.969Z,101457.01000000001
2022-11-29T00:45:14.171Z,101451.0
2022-11-29T00:50:13.993Z,101455.17
2022-11-29T00:55:14.959Z,101449.81
2022-11-29T01:00:15.970Z,101446.0
2022-11-29T01:05:14.217Z,101441.67
2022-11-29T01:10:13.912Z,101440.93000000001
2022-11-29T01:15:14.107Z,101437.62000000001
2022-11-29T01:20:14.963Z,101431.02
2022-11-29T01:25:14.823Z,101430.61
2022-11-29T01:30:15.311Z,101425.81
2022-11-29T01:35:14.364Z,101417.88
2022-11-29T01:40:14.084Z,101415.98
2022-11-29T01:45:21.801Z,101422.19
2022-11-29T01:50:14.231Z,101415.42
2022-11-29T01:55:18.803Z,101398.5
2022-11-29T02:00:17.869Z,101405.38
2022-11-29T02:05:17.644Z,101401.0
2022-11-29T02:10:14.746Z,101406.86
2022-11-29T02:15:24.227Z,101407.14
2022-11-29T02:20:29.669Z,101402.67
2022-11-29T02:25:25.347Z,101403.14
2022-11-29T02:30:33.790Z,101411.06
2022-11-29T02:35:23.501Z,101413.22
2022-11-29T02:40:24.850Z,101411.64
2022-11-29T02:45:29.460Z,101419.59000000001
2022-11-29T02:50:26.102Z,101440.69
2022-11-29T02:55:20.065Z,101422.13
2022-11-29T03:00:17.302Z,101423.46
2022-11-29T03:05:23.226Z,101424.15999999999
2022-11-29T03:10:23.562Z,101428.3
2022-11-29T03:15:23.214Z,101427.48
2022-11-29T03:20:27.880Z,101434.26
2022-11-29T03:25:21.866Z,101434.72
2022-11-29T03:30:17.407Z,101430.52
2022-11-29T03:35:19.704Z,101434.06
2022-11-29T03:40:18.010Z,101431.69
2022-11-29T03:45:20.540Z,101432.62
2022-11-29T03:50:22.227Z,101439.87
2022-11-29T03:55:30.509Z,101439.54
2022-11-29T04:00:16.811Z,101444.42
2022-11-29T04:05:28.003Z,101448.94
2022-11-29T04:10:19.020Z,101449.51999999999
2022-11-29T04:15:31.641Z,101447.69
2022-11-29T04:20:39.091Z,101451.98000000001
2022-11-29T04:25:33.597Z,101458.44
2022-11-29T04:30:19.070Z,101453.68999999999
2022-11-29T04:35:30.908Z,101464.87
2022-11-29T04:40:25.591Z,101466.4
2022-11-29T04:45:33.536Z,101467.83
2022-11-29T04:50:25.094Z,101479.54999999999
2022-11-29T04:55:30.707Z,101475.95
2022-11-29T05:00:18.284Z,101479.19
2022-11-29T05:05:26.233Z,101479.33
2022-11-29T05:10:27.222Z,101485.94
2022-11-29T05:15:31.942Z,101485.08
2022-11-29T05:20:23.281Z,101491.12
2022-11-29T05:25:30.629Z,101495.53
2022-11-29T05:30:17.200Z,101496.72
2022-11-29T05:35:30.847Z,101495.89
2022-11-29T05:40:30.125Z,101504.72
2022-11-29T05:45:18.566Z,101511.0
2022-11-29T05:50:20.311Z,101513.3
2022-11-29T05:55:22.267Z,101523.33
2022-11-29T06:00:16.950Z,101527.67
2022-11-29T06:05:19.633Z,101531.41
2022-11-29T06:10:17.050Z,101535.94
2022-11-29T06:15:27.407Z,101536.78
2022-11-29T06:20:28.744Z,101544.22
2022-11-29T06:25:23.315Z,101546.93
2022-11-29T06:30:15.489Z,101550.08
2022-11-29T06:35:32.625Z,101549.37999999999
2022-11-29T06:40:14.912Z,101557.01000000001
2022-11-29T06:45:14.677Z,101558.14
2022-11-29T06:50:29.458Z,101562.59
2022-11-29T06:55:18.709Z,101563.9
2022-11-29T07:00:19.719Z,101564.87
2022-11-29T07:05:18.626Z,101574.41
2022-11-29T07:10:16.327Z,101570.72
2022-11-29T07:15:15.616Z,101580.73000000001
2022-11-29T07:20:22.828Z,101578.38
2022-11-29T07:25:23.873Z,101581.56
2022-11-29T07:30:26.434Z,101582.4
2022-11-29T07:35:18.574Z,101587.08
2022-11-29T07:40:18.655Z,101594.73000000001
2022-11-29T07:45:23.260Z,101592.88
2022-11-29T07:50:13.810Z,101596.22
2022-11-29T07:55:18.907Z,101593.52
2022-11-29T08:00:14.298Z,101598.91
2022-11-29T08:05:14.611Z,101595.92
2022-11-29T08:10:15.995Z,101589.15
2022-11-29T08:15:14.418Z,101593.72
2022-11-29T08:20:15.694Z,101591.58
2022-11-29T08:25:13.758Z,101595.94
2022-11-29T08:30:13.920Z,101600.40000000001
2022-11-29T08:35:13.719Z,101597.83
2022-11-29T08:40:14.621Z,101603.86
2022-11-29T08:45:13.680Z,101599.73
2022-11-29T08:50:17.219Z,101603.38
2022-11-29T08:55:13.734Z,101606.25
2022-11-29T09:00:14.821Z,101600.78
2022-11-29T09:05:14.815Z,101602.45
2022-11-29T09:10:13.449Z,101593.06
2022-11-29T09:15:13.701Z,101601.9
2022-11-29T09:20:14.306Z,101591.02
2022-11-29T09:25:14.009Z,101587.66
2022-11-29T09:30:14.740Z,101591.76999999999
2022-11-29T09:35:14.549Z,101589.12
2022-11-29T09:40:18.932Z,101596.38
2022-11-29T09:45:18.554Z,101583.20999999999
2022-11-29T09:50:21.931Z,101590.62
2022-11-29T09:55:33.512Z,101589.22
2022-11-29T10:00:16.500Z,101587.45
2022-11-29T10:05:21.897Z,101592.42
2022-11-29T10:10:17.472Z,101584.06
2022-11-29T10:15:18.771Z,101583.95000000001
2022-11-29T10:20:17.571Z,101579.40999999999
2022-11-29T10:25:21.014Z,101566.67
2022-11-29T10:30:15.399Z,101571.19
2022-11-29T10:35:16.327Z,101566.8
2022-11-29T10:40:18.152Z,101567.18
2022-11-29T10:45:17.062Z,101576.58
2022-11-29T10:50:18.866Z,101575.06
2022-11-29T10:55:16.093Z,101575.86
2022-11-29T11:00:14.000Z,101580.88
2022-11-29T11:05:17.567Z,101587.64
2022-11-29T11:10:21.222Z,101580.51000000001
2022-11-29T11:15:24.979Z,101581.39
2022-11-29T11:20:19.570Z,101583.86
2022-11-29T11:25:25.101Z,101595.2
2022-11-29T11:30:20.831Z,101581.38
2022-11-29T11:35:23.049Z,101582.22
2022-11-29T11:40:25.002Z,101586.19
2022-11-29T11:45:31.792Z,101589.09
2022-11-29T11:50:15.577Z,101592.42
2022-11-29T11:55:27.268Z,101593.83
2022-11-29T12:01:01.738Z,101598.65
2022-11-29T12:05:18.474Z,101599.59
2022-11-29T12:10:21.508Z,101602.78
2022-11-29T12:15:18.037Z,101599.91
2022-11-29T12:20:21.261Z,101598.03
2022-11-29T12:25:18.518Z,101599.08
2022-11-29T12:30:14.785Z,101605.56
2022-11-29T12:35:34.380Z,101605.5
2022-11-29T12:40:22.562Z,101607.12
2022-11-29T12:45:29.103Z,101613.22
2022-11-29T12:50:27.518Z,101608.62
2022-11-29T12:55:22.649Z,101618.61
2022-11-29T13:00:15.955Z,101618.6
2022-11-29T13:05:22.219Z,101618.66
2022-11-29T13:10:20.121Z,101620.1
2022-11-29T13:15:16.189Z,101620.78
2022-11-29T13:20:24.396Z,101630.44
2022-11-29T13:25:17.659Z,101628.45999999999
2022-11-29T13:30:14.750Z,101637.98000000001
2022-11-29T13:35:20.968Z,101638.72
2022-11-29T13:40:24.784Z,101651.15
2022-11-29T13:45:20.607Z,101651.70000000001
2022-11-29T13:50:33.215Z,101657.25
2022-11-29T13:55:22.015Z,101656.61
2022-11-29T14:00:27.978Z,101667.76999999999
2022-11-29T14:05:24.324Z,101664.01
2022-11-29T14:10:28.435Z,101661.89
2022-11-29T14:15:20.041Z,101661.15
2022-11-29T14:20:33.368Z,101659.22
2022-11-29T14:25:43.244Z,101660.56999999999
2022-11-29T14:30:33.193Z,101665.43000000001
2022-11-29T14:35:20.432Z,101663.18
2022-11-29T14:40:22.056Z,101661.99
2022-11-29T14:45:23.161Z,101659.45
2022-11-29T14:50:28.761Z,101661.87999999999
2022-11-29T14:55:32.080Z,101667.44
2022-11-29T15:00:16.500Z,101662.36
2022-11-29T15:05:17.704Z,101664.87
2022-11-29T15:10:17.941Z,101663.45999999999
2022-11-29T15:15:29.303Z,101669.37000000001
2022-11-29T15:20:30.203Z,101668.52
2022-11-29T15:25:17.948Z,101673.89
2022-11-29T15:30:17.651Z,101675.81
2022-11-29T15:35:16.685Z,101681.20999999999
2022-11-29T15:40:15.774Z,101686.42
2022-11-29T15:45:24.515Z,101685.61
2022-11-29T15:50:24.766Z,101693.24
2022-11-29T15:55:13.739Z,101695.48
2022-11-29T16:00:19.412Z,101701.53
2022-11-29T16:05:19.121Z,101703.63
2022-11-29T16:10:18.655Z,101698.63
2022-11-29T16:15:24.655Z,101699.86
2022-11-29T16:20:23.225Z,101691.11
2022-11-29T16:25:16.552Z,101694.81
2022-11-29T16:30:20.934Z,101697.6
2022-11-29T16:35:20.066Z,101699.72
2022-11-29T16:40:21.219Z,101710.58
2022-11-29T16:45:32.012Z,101715.02
2022-11-29T16:50:16.467Z,101717.21
2022-11-29T16:55:14.095Z,101721.54000000001
2022-11-29T17:00:27.992Z,101718.45
2022-11-29T17:05:13.201Z,101724.2
2022-11-29T17:10:17.130Z,101723.85
2022-11-29T17:15:13.664Z,101717.89
2022-11-29T17:20:13.717Z,101720.93
2022-11-29T17:25:13.677Z,101729.17
2022-11-29T17:30:13.730Z,101730.12999999999
2022-11-29T17:35:13.159Z,101732.17
2022-11-29T17:40:14.468Z,101734.16
2022-11-29T17:45:13.970Z,101739.73
2022-11-29T17:50:13.105Z,101744.36
2022-11-29T17:55:13.600Z,101739.47
2022-11-29T18:00:14.770Z,101738.14
2022-11-29T18:05:13.358Z,101748.17
2022-11-29T18:10:13.023Z,101742.46
2022-11-29T18:15:14.019Z,101742.26
2022-11-29T18:20:13.672Z,101743.3
2022-11-29T18:25:37.514Z,101741.43000000001
2022-11-29T18:30:14.055Z,101746.26
2022-11-29T18:35:13.340Z,101740.07
2022-11-29T18:40:13.835Z,101744.62
2022-11-29T18:45:13.526Z,101746.09
2022-11-29T18:50:13.054Z,101751.01
2022-11-29T18:55:12.988Z,101752.92
2022-11-29T19:00:14.231Z,101760.97
2022-11-29T19:05:13.318Z,101752.45
2022-11-29T19:10:12.983Z,101755.89
2022-11-29T19:15:13.801Z,101757.76
2022-11-29T19:20:13.137Z,101773.0
2022-11-29T19:25:13.237Z,101773.51999999999
2022-11-29T19:30:15.827Z,101775.54000000001
2022-11-29T19:35:12.993Z,101774.41
2022-11-29T19:40:13.090Z,101784.09
2022-11-29T19:45:17.431Z,101785.28
2022-11-29T19:50:13.066Z,101788.94
2022-11-29T19:55:13.032Z,101792.26
2022-11-29T20:00:14.923Z,101789.37
2022-11-29T20:05:13.346Z,101786.94
2022-11-29T20:10:13.117Z,101790.64
2022-11-29T20:15:14.041Z,101797.69
2022-11-29T20:20:13.753Z,101796.95
2022-11-29T20:25:13.076Z,101805.06
2022-11-29T20:30:13.901Z,101802.29000000001
2022-11-29T20:35:13.479Z,101800.72
2022-11-29T20:40:17.810Z,101801.9
2022-11-29T20:45:15.334Z,101801.53
2022-11-29T20:50:13.459Z,101799.94
2022-11-29T20:55:13.044Z,101798.38
2022-11-29T21:00:14.637Z,101802.44
2022-11-29T21:05:12.868Z,101807.06
2022-11-29T21:10:14.412Z,101810.55
2022-11-29T21:15:15.029Z,101809.40000000001
2022-11-29T21:20:17.985Z,101809.47
2022-11-29T21:25:20.638Z,101815.61
2022-11-29T21:30:19.079Z,101814.87
2022-11-29T21:35:13.740Z,101822.39
2022-11-29T21:40:15.133Z,101821.94
2022-11-29T21:45:15.690Z,101828.27
2022-11-29T21:50:13.325Z,101830.62999999999
2022-11-29T21:55:12.923Z,101834.38
2022-11-29T22:00:14.170Z,101830.06
2022-11-29T22:05:12.789Z,101836.37999999999
2022-11-29T22:10:13.629Z,101832.08
2022-11-29T22:15:14.867Z,101834.88
2022-11-29T22:20:12.817Z,101838.56
2022-11-29T22:25:13.523Z,101841.3
2022-11-29T22:30:14.372Z,101843.0
2022-11-29T22:35:12.860Z,101848.93
2022-11-29T22:40:12.833Z,101848.97
2022-11-29T22:45:13.374Z,101851.84000000001
2022-11-29T22:50:13.030Z,101853.47
2022-11-29T22:55:12.889Z,101845.72
2022-11-29T23:00:13.985Z,101846.19
2022-11-29T23:05:12.907Z,101840.36
2022-11-29T23:10:12.761Z,101838.06
2022-11-29T23:15:13.836Z,101840.07
2022-11-29T23:20:13.073Z,101836.87999999999
2022-11-29T23:25:12.759Z,101830.88
2022-11-29T23:30:13.641Z,101818.12
2022-11-29T23:35:12.946Z,101823.27
2022-11-29T23:40:13.150Z,101824.73
2022-11-29T23:40:51.860Z,101824.73
2022-11-29T23:43:16.196Z,101824.76000000001
2022-11-29T23:45:12.890Z,101824.76000000001
2022-11-29T23:50:12.802Z,101815.64
2022-11-29T23:55:13.835Z,101812.36
